createdAt,value
2019-02-18T00:00:43.671Z,64.97
2019-02-18T00:03:13.209Z,70.17
2019-02-18T00:05:42.833Z,74.90
2019-02-18T00:08:12.197Z,78.87
2019-02-18T00:10:41.593Z,79.80
2019-02-18T00:13:10.939Z,76.30
2019-02-18T00:15:40.320Z,70.90
2019-02-18T00:18:09.678Z,75.33
2019-02-18T00:20:39.067Z,75.47
2019-02-18T00:23:08.533Z,65.00
2019-02-18T00:25:37.883Z,66.20
2019-02-18T00:28:07.245Z,58.83
2019-02-18T00:30:36.600Z,57.10
2019-02-18T00:33:05.934Z,56.87
2019-02-18T00:35:35.285Z,63.83
2019-02-18T00:38:04.635Z,61.70
2019-02-18T00:40:33.984Z,65.93
2019-02-18T00:43:03.330Z,70.53
2019-02-18T00:45:32.670Z,69.20
2019-02-18T00:48:02.024Z,66.60
2019-02-18T00:50:31.362Z,62.07
2019-02-18T00:53:00.681Z,65.67
2019-02-18T00:55:30.068Z,69.90
2019-02-18T00:57:59.390Z,66.37
2019-02-18T01:00:28.739Z,71.63
2019-02-18T01:02:58.151Z,62.30
2019-02-18T01:05:27.524Z,62.50
2019-02-18T01:07:56.910Z,68.47
2019-02-18T01:10:26.209Z,63.73
2019-02-18T01:12:55.536Z,60.37
2019-02-18T01:15:24.897Z,59.00
2019-02-18T01:17:54.248Z,63.87
2019-02-18T01:20:23.594Z,60.77
2019-02-18T01:22:52.958Z,67.00
2019-02-18T01:25:22.287Z,60.67
2019-02-18T01:27:51.617Z,66.70
2019-02-18T01:30:20.960Z,89.77
2019-02-18T01:32:50.386Z,79.63
2019-02-18T01:35:19.701Z,82.17
2019-02-18T01:37:49.029Z,85.17
2019-02-18T01:40:18.359Z,83.97
2019-02-18T01:42:47.677Z,85.00
2019-02-18T01:45:16.999Z,103.63
2019-02-18T01:47:46.330Z,109.57
2019-02-18T01:50:16.020Z,105.40
2019-02-18T01:52:45.363Z,113.17
2019-02-18T01:55:14.743Z,109.93
2019-02-18T01:57:44.074Z,97.10
2019-02-18T02:00:15.276Z,86.90
2019-02-18T02:02:44.713Z,86.77
2019-02-18T02:05:15.882Z,88.03
2019-02-18T02:07:55.399Z,84.67
2019-02-18T02:10:16.639Z,84.73
2019-02-18T02:12:45.958Z,90.47
2019-02-18T02:15:18.561Z,92.47
2019-02-18T02:17:47.880Z,92.00
2019-02-18T02:20:17.173Z,83.00
2019-02-18T02:22:46.497Z,94.97
2019-02-18T02:25:15.899Z,88.37
2019-02-18T02:27:45.332Z,88.07
2019-02-18T02:30:14.773Z,93.70
2019-02-18T02:32:44.153Z,94.50
2019-02-18T02:35:13.543Z,87.07
2019-02-18T02:37:42.934Z,84.97
2019-02-18T02:40:12.278Z,82.07
2019-02-18T02:42:41.596Z,86.30
2019-02-18T02:45:10.888Z,81.53
2019-02-18T02:47:40.214Z,81.70
2019-02-18T02:50:09.881Z,82.80
2019-02-18T02:52:39.244Z,84.00
2019-02-18T02:55:08.576Z,87.53
2019-02-18T02:57:37.927Z,91.73
2019-02-18T03:00:09.118Z,90.83
2019-02-18T03:02:38.449Z,81.23
2019-02-18T03:05:08.019Z,86.57
2019-02-18T03:07:37.334Z,84.70
2019-02-18T03:10:06.789Z,85.00
2019-02-18T03:12:36.098Z,78.83
2019-02-18T03:15:06.074Z,79.93
2019-02-18T03:17:35.400Z,83.57
2019-02-18T03:20:05.338Z,74.20
2019-02-18T03:22:34.682Z,71.10
2019-02-18T03:25:20.871Z,67.93
2019-02-18T03:27:52.452Z,64.27
2019-02-18T03:30:52.176Z,72.97
2019-02-18T03:33:31.507Z,67.67
2019-02-18T03:36:00.954Z,68.83
2019-02-18T03:38:31.922Z,66.63
2019-02-18T03:41:03.369Z,71.47
2019-02-18T03:43:32.813Z,74.03
2019-02-18T03:46:02.171Z,73.83
2019-02-18T03:48:31.612Z,75.80
2019-02-18T03:51:00.945Z,69.47
2019-02-18T03:53:30.288Z,77.30
2019-02-18T03:55:59.747Z,75.60
2019-02-18T03:58:29.114Z,75.47
2019-02-18T04:00:58.470Z,78.53
2019-02-18T04:03:27.809Z,90.90
2019-02-18T04:05:57.177Z,91.97
2019-02-18T04:08:26.550Z,83.30
2019-02-18T04:10:55.919Z,89.40
2019-02-18T04:13:25.293Z,88.87
2019-02-18T04:15:54.631Z,79.80
2019-02-18T04:18:23.973Z,81.03
2019-02-18T04:20:53.321Z,79.07
2019-02-18T04:23:22.689Z,83.97
2019-02-18T04:25:52.010Z,83.67
2019-02-18T04:28:21.352Z,80.27
2019-02-18T04:30:50.732Z,79.10
2019-02-18T04:33:20.020Z,87.30
2019-02-18T04:35:49.381Z,91.63
2019-02-18T04:38:18.801Z,96.80
2019-02-18T04:40:48.573Z,96.63
2019-02-18T04:43:17.939Z,100.53
2019-02-18T04:45:47.295Z,105.27
2019-02-18T04:48:16.715Z,85.53
2019-02-18T04:50:46.050Z,96.08
2019-02-18T04:53:15.392Z,87.67
2019-02-18T04:55:44.737Z,91.80
2019-02-18T04:58:14.149Z,98.82
2019-02-18T05:00:43.477Z,90.77
2019-02-18T05:03:12.789Z,95.10
2019-02-18T05:05:42.231Z,94.70
2019-02-18T05:08:11.606Z,91.75
2019-02-18T05:10:40.990Z,89.97
2019-02-18T05:13:10.345Z,86.22
2019-02-18T05:15:40.527Z,78.67
2019-02-18T05:18:10.080Z,75.50
2019-02-18T05:20:39.426Z,86.53
2019-02-18T05:23:08.804Z,78.00
2019-02-18T05:25:38.118Z,78.12
2019-02-18T05:28:07.484Z,79.27
2019-02-18T05:30:36.845Z,81.53
2019-02-18T05:33:06.218Z,82.03
2019-02-18T05:35:35.598Z,82.17
2019-02-18T05:38:04.920Z,87.07
2019-02-18T05:40:34.289Z,88.53
2019-02-18T05:43:03.657Z,80.13
2019-02-18T05:45:33.023Z,86.50
2019-02-18T05:48:02.422Z,88.37
2019-02-18T05:50:31.809Z,81.00
2019-02-18T05:53:01.140Z,91.53
2019-02-18T05:55:31.123Z,116.17
2019-02-18T05:58:00.530Z,96.50
2019-02-18T06:00:29.872Z,140.63
2019-02-18T06:02:59.323Z,145.90
2019-02-18T06:05:28.723Z,137.17
2019-02-18T06:07:58.164Z,112.77
2019-02-18T06:10:27.493Z,87.77
2019-02-18T06:12:56.850Z,78.33
2019-02-18T06:15:26.148Z,70.23
2019-02-18T06:17:55.448Z,62.50
2019-02-18T06:20:24.762Z,72.47
2019-02-18T06:22:54.158Z,60.30
2019-02-18T06:25:23.503Z,58.87
2019-02-18T06:27:52.885Z,78.73
2019-02-18T06:30:22.262Z,81.30
2019-02-18T06:32:51.751Z,82.50
2019-02-18T06:35:21.129Z,90.07
2019-02-18T06:37:50.489Z,93.30
2019-02-18T06:40:19.866Z,89.93
2019-02-18T06:42:49.427Z,96.30
2019-02-18T06:45:37.696Z,126.57
2019-02-18T06:48:30.846Z,112.17
2019-02-18T06:51:00.167Z,118.07
2019-02-18T06:53:29.572Z,112.77
2019-02-18T06:55:59.553Z,118.20
2019-02-18T06:58:57.019Z,102.13
2019-02-18T07:01:34.294Z,101.07
2019-02-18T07:04:26.292Z,92.30
2019-02-18T07:07:10.445Z,87.40
2019-02-18T07:10:10.758Z,96.17
2019-02-18T07:12:46.458Z,82.70
2019-02-18T07:15:16.148Z,85.43
2019-02-18T07:17:45.490Z,83.50
2019-02-18T07:20:14.813Z,76.97
2019-02-18T07:22:44.147Z,80.27
2019-02-18T07:25:13.808Z,76.20
2019-02-18T07:27:43.150Z,78.83
2019-02-18T07:30:14.910Z,75.87
2019-02-18T07:32:44.423Z,73.00
2019-02-18T07:35:13.790Z,66.90
2019-02-18T07:37:43.262Z,65.70
2019-02-18T07:40:12.713Z,59.73
2019-02-18T07:42:42.046Z,72.27
2019-02-18T07:45:11.411Z,68.70
2019-02-18T07:47:40.775Z,64.73
2019-02-18T07:50:19.904Z,53.73
2019-02-18T07:52:41.551Z,63.90
2019-02-18T07:55:10.926Z,62.30
2019-02-18T07:57:40.287Z,50.83
2019-02-18T08:00:11.655Z,45.50
2019-02-18T08:02:40.987Z,53.30
2019-02-18T08:05:10.291Z,48.20
2019-02-18T08:07:39.659Z,49.17
2019-02-18T08:10:12.400Z,47.07
2019-02-18T08:12:40.734Z,45.13
2019-02-18T08:15:11.526Z,46.47
2019-02-18T08:17:40.909Z,46.23
2019-02-18T08:20:10.336Z,47.63
2019-02-18T08:22:39.676Z,44.23
2019-02-18T08:25:09.570Z,45.70
2019-02-18T08:27:38.916Z,43.37
2019-02-18T08:30:09.880Z,39.57
2019-02-18T08:32:39.327Z,42.40
2019-02-18T08:35:08.767Z,46.43
2019-02-18T08:37:38.379Z,46.47
2019-02-18T08:40:07.946Z,40.87
2019-02-18T08:42:37.296Z,43.47
2019-02-18T08:45:08.386Z,47.17
2019-02-18T08:47:37.750Z,50.37
2019-02-18T08:50:08.692Z,44.87
2019-02-18T08:52:38.063Z,39.50
2019-02-18T08:55:09.113Z,41.30
2019-02-18T08:57:38.440Z,43.83
2019-02-18T09:00:10.138Z,45.03
2019-02-18T09:02:39.495Z,45.93
2019-02-18T09:05:08.957Z,48.00
2019-02-18T09:07:38.486Z,44.73
2019-02-18T09:10:08.486Z,46.20
2019-02-18T09:12:37.847Z,51.10
2019-02-18T09:15:07.749Z,45.60
2019-02-18T09:17:37.111Z,49.57
2019-02-18T09:20:07.188Z,47.13
2019-02-18T09:22:59.673Z,49.83
2019-02-18T09:25:33.706Z,48.07
2019-02-18T09:28:03.096Z,44.10
2019-02-18T09:30:34.736Z,47.27
2019-02-18T09:33:04.126Z,43.00
2019-02-18T09:35:34.063Z,61.10
2019-02-18T09:38:03.451Z,46.57
2019-02-18T09:40:43.991Z,52.73
2019-02-18T09:43:04.072Z,45.83
2019-02-18T09:45:33.532Z,45.83
2019-02-18T09:48:03.039Z,44.23
2019-02-18T09:50:32.678Z,44.33
2019-02-18T09:53:02.594Z,51.57
2019-02-18T09:55:32.073Z,47.63
2019-02-18T09:58:01.419Z,42.87
2019-02-18T10:00:30.788Z,45.57
2019-02-18T10:03:00.117Z,52.23
2019-02-18T10:05:29.485Z,43.10
2019-02-18T10:07:58.883Z,46.83
2019-02-18T10:10:28.313Z,48.63
2019-02-18T10:12:59.591Z,43.63
2019-02-18T10:15:28.730Z,44.57
2019-02-18T10:17:58.084Z,46.23
2019-02-18T10:20:27.461Z,45.77
2019-02-18T10:22:56.817Z,44.37
2019-02-18T10:25:26.241Z,43.87
2019-02-18T10:27:55.591Z,50.23
2019-02-18T10:30:24.940Z,46.93
2019-02-18T10:32:54.288Z,49.03
2019-02-18T10:35:26.366Z,46.83
2019-02-18T10:37:55.514Z,47.73
2019-02-18T10:40:24.918Z,45.40
2019-02-18T10:42:54.335Z,46.47
2019-02-18T10:45:23.682Z,47.77
2019-02-18T10:47:53.061Z,45.50
2019-02-18T10:50:22.461Z,43.07
2019-02-18T10:52:51.808Z,44.93
2019-02-18T10:55:21.333Z,47.47
2019-02-18T10:57:50.722Z,42.57
2019-02-18T11:00:20.111Z,40.47
2019-02-18T11:02:49.533Z,45.17
2019-02-18T11:05:18.858Z,45.67
2019-02-18T11:07:48.237Z,46.70
2019-02-18T11:10:17.751Z,42.97
2019-02-18T11:12:47.743Z,42.27
2019-02-18T11:15:17.203Z,45.17
2019-02-18T11:17:46.949Z,38.87
2019-02-18T11:20:16.331Z,53.77
2019-02-18T11:22:45.694Z,44.90
2019-02-18T11:25:15.131Z,47.67
2019-02-18T11:27:44.489Z,38.80
2019-02-18T11:30:14.983Z,44.33
2019-02-18T11:32:44.345Z,42.17
2019-02-18T11:35:13.815Z,36.47
2019-02-18T11:37:43.166Z,42.57
2019-02-18T11:40:13.902Z,34.30
2019-02-18T11:42:43.265Z,31.50
2019-02-18T11:45:13.915Z,32.13
2019-02-18T11:47:43.292Z,31.87
2019-02-18T11:50:14.464Z,33.20
2019-02-18T11:52:43.958Z,31.03
2019-02-18T11:55:13.325Z,29.80
2019-02-18T11:57:43.140Z,28.33
2019-02-18T12:00:12.822Z,30.07
2019-02-18T12:02:42.213Z,29.23
2019-02-18T12:05:11.860Z,30.93
2019-02-18T12:07:41.297Z,30.00
2019-02-18T12:10:11.035Z,25.80
2019-02-18T12:12:40.851Z,27.10
2019-02-18T12:15:10.967Z,32.77
2019-02-18T12:17:40.472Z,32.60
2019-02-18T12:20:11.945Z,30.63
2019-02-18T12:22:41.397Z,31.48
2019-02-18T12:25:11.152Z,32.85
2019-02-18T12:27:40.915Z,32.40
2019-02-18T12:30:11.514Z,27.60
2019-02-18T12:32:40.841Z,31.47
2019-02-18T12:35:10.413Z,27.67
2019-02-18T12:37:39.851Z,27.43
2019-02-18T12:40:09.599Z,27.40
2019-02-18T12:42:39.234Z,28.07
2019-02-18T12:45:09.235Z,27.13
2019-02-18T12:47:38.696Z,27.03
2019-02-18T12:50:08.540Z,29.77
2019-02-18T12:52:37.899Z,25.73
2019-02-18T12:55:07.732Z,27.13
2019-02-18T12:57:37.397Z,25.75
2019-02-18T13:00:07.647Z,27.02
2019-02-18T13:02:44.161Z,25.07
2019-02-18T13:05:08.996Z,25.23
2019-02-18T13:07:38.332Z,31.13
2019-02-18T13:10:07.796Z,31.03
2019-02-18T13:12:37.171Z,25.93
2019-02-18T13:15:08.226Z,31.20
2019-02-18T13:17:37.599Z,24.23
2019-02-18T13:20:07.506Z,29.10
2019-02-18T13:22:36.848Z,30.20
2019-02-18T13:25:06.575Z,27.30
2019-02-18T13:27:35.930Z,29.80
2019-02-18T13:30:09.538Z,28.80
2019-02-18T13:32:38.980Z,28.30
2019-02-18T13:35:08.376Z,26.03
2019-02-18T13:37:37.840Z,28.00
2019-02-18T13:40:07.579Z,28.00
2019-02-18T13:42:36.935Z,29.63
2019-02-18T13:45:06.754Z,25.63
2019-02-18T13:47:36.178Z,26.17
2019-02-18T13:50:06.212Z,27.93
2019-02-18T13:52:35.561Z,22.40
2019-02-18T13:55:05.325Z,27.20
2019-02-18T13:57:34.686Z,28.40
2019-02-18T14:00:04.440Z,26.10
2019-02-18T14:02:33.788Z,27.40
2019-02-18T14:05:03.139Z,25.57
2019-02-18T14:07:32.510Z,25.77
2019-02-18T14:10:01.894Z,30.50
2019-02-18T14:12:31.398Z,31.50
2019-02-18T14:15:01.198Z,23.03
2019-02-18T14:17:30.557Z,25.97
2019-02-18T14:20:00.037Z,29.77
2019-02-18T14:22:29.369Z,29.17
2019-02-18T14:24:58.725Z,28.30
2019-02-18T14:27:28.075Z,24.33
2019-02-18T14:29:57.413Z,28.37
2019-02-18T14:32:26.799Z,26.03
2019-02-18T14:34:56.135Z,23.77
2019-02-18T14:37:25.579Z,28.03
2019-02-18T14:39:54.942Z,21.30
2019-02-18T14:42:24.873Z,26.57
2019-02-18T14:44:54.218Z,23.20
2019-02-18T14:47:24.603Z,27.53
2019-02-18T14:49:54.184Z,27.67
2019-02-18T14:52:23.888Z,36.17
2019-02-18T14:54:53.263Z,23.87
2019-02-18T14:57:22.744Z,20.73
2019-02-18T14:59:52.083Z,21.80
2019-02-18T15:02:21.455Z,24.87
2019-02-18T15:04:50.806Z,27.87
2019-02-18T15:07:20.158Z,32.07
2019-02-18T15:09:49.486Z,34.37
2019-02-18T15:12:20.171Z,29.60
2019-02-18T15:14:49.595Z,39.10
2019-02-18T15:17:18.915Z,42.30
2019-02-18T15:19:48.257Z,43.73
2019-02-18T15:22:17.590Z,45.07
2019-02-18T15:24:46.982Z,42.87
2019-02-18T15:27:16.673Z,47.87
2019-02-18T15:29:46.024Z,51.87
2019-02-18T15:32:15.376Z,50.53
2019-02-18T15:34:44.719Z,51.27
2019-02-18T15:37:14.397Z,61.23
2019-02-18T15:39:43.736Z,67.83
2019-02-18T15:42:13.282Z,69.80
2019-02-18T15:44:42.655Z,62.90
2019-02-18T15:47:12.016Z,66.47
2019-02-18T15:49:41.369Z,59.00
2019-02-18T15:52:10.709Z,68.37
2019-02-18T15:54:40.109Z,68.10
2019-02-18T15:57:09.435Z,89.83
2019-02-18T15:59:38.895Z,65.70
2019-02-18T16:02:09.868Z,56.83
2019-02-18T16:04:39.191Z,56.83
2019-02-18T16:07:08.531Z,65.40
2019-02-18T16:09:37.877Z,59.00
2019-02-18T16:12:07.612Z,57.17
2019-02-18T16:14:36.974Z,71.10
2019-02-18T16:17:06.347Z,95.43
2019-02-18T16:19:35.730Z,79.13
2019-02-18T16:22:05.122Z,66.03
2019-02-18T16:24:34.511Z,59.50
2019-02-18T16:27:03.838Z,70.53
2019-02-18T16:29:34.712Z,77.93
2019-02-18T16:32:04.058Z,76.73
2019-02-18T16:34:33.379Z,88.50
2019-02-18T16:37:03.127Z,91.70
2019-02-18T16:39:32.490Z,85.97
2019-02-18T16:42:02.260Z,84.57
2019-02-18T16:44:31.752Z,95.90
2019-02-18T16:47:01.128Z,90.07
2019-02-18T16:49:32.722Z,94.53
2019-02-18T16:52:02.091Z,95.20
2019-02-18T16:54:31.440Z,94.43
2019-02-18T16:57:00.778Z,89.20
2019-02-18T16:59:30.141Z,103.77
2019-02-18T17:01:59.452Z,101.67
2019-02-18T17:04:28.834Z,105.37
2019-02-18T17:06:58.100Z,110.77
2019-02-18T17:09:27.505Z,106.53
2019-02-18T17:11:56.864Z,135.03
2019-02-18T17:14:26.223Z,112.83
2019-02-18T17:16:55.589Z,107.80
2019-02-18T17:19:24.945Z,127.50
2019-02-18T17:21:54.321Z,113.47
2019-02-18T17:24:23.844Z,120.40
2019-02-18T17:26:53.273Z,103.47
2019-02-18T17:29:22.641Z,104.90
2019-02-18T17:31:52.035Z,111.13
2019-02-18T17:34:21.409Z,109.77
2019-02-18T17:36:50.803Z,110.00
2019-02-18T17:39:20.528Z,111.77
2019-02-18T17:41:49.907Z,114.70
2019-02-18T17:44:20.419Z,139.23
2019-02-18T17:46:50.008Z,99.80
2019-02-18T17:49:19.440Z,124.30
2019-02-18T17:51:48.880Z,132.90
2019-02-18T17:54:18.326Z,98.83
2019-02-18T17:56:47.672Z,123.30
2019-02-18T17:59:17.105Z,109.33
2019-02-18T18:01:46.473Z,156.33
2019-02-18T18:04:16.150Z,173.27
2019-02-18T18:06:45.528Z,178.50
2019-02-18T18:09:14.951Z,269.10
2019-02-18T18:11:44.565Z,219.70
2019-02-18T18:14:13.932Z,176.73
2019-02-18T18:16:43.298Z,121.27
2019-02-18T18:19:12.650Z,112.97
2019-02-18T18:21:42.157Z,132.83
2019-02-18T18:24:11.537Z,119.43
2019-02-18T18:26:40.903Z,142.20
2019-02-18T18:29:10.283Z,153.37
2019-02-18T18:31:39.787Z,123.60
2019-02-18T18:34:09.186Z,113.63
2019-02-18T18:36:38.591Z,192.40
2019-02-18T18:39:07.955Z,187.23
2019-02-18T18:41:37.489Z,125.23
2019-02-18T18:44:06.947Z,189.23
2019-02-18T18:46:36.344Z,176.30
2019-02-18T18:49:05.866Z,203.70
2019-02-18T18:51:35.991Z,221.23
2019-02-18T18:54:05.725Z,203.23
2019-02-18T18:56:35.140Z,220.23
2019-02-18T18:59:04.540Z,244.03
2019-02-18T19:01:34.359Z,280.70
2019-02-18T19:04:03.850Z,275.63
2019-02-18T19:06:34.894Z,328.03
2019-02-18T19:09:05.120Z,259.17
2019-02-18T19:11:34.478Z,206.53
2019-02-18T19:14:05.033Z,127.77
2019-02-18T19:16:34.449Z,100.77
2019-02-18T19:19:04.148Z,92.70
2019-02-18T19:21:33.552Z,70.80
2019-02-18T19:24:03.662Z,81.43
2019-02-18T19:26:32.999Z,68.93
2019-02-18T19:29:02.361Z,72.60
2019-02-18T19:31:32.622Z,55.50
2019-02-18T19:34:01.959Z,142.83
2019-02-18T19:36:32.965Z,70.30
2019-02-18T19:39:03.536Z,38.27
2019-02-18T19:41:33.117Z,35.97
2019-02-18T19:44:02.478Z,42.03
2019-02-18T19:46:32.108Z,42.93
2019-02-18T19:49:01.449Z,40.03
2019-02-18T19:51:30.795Z,36.67
2019-02-18T19:54:00.151Z,58.33
2019-02-18T19:56:29.517Z,63.87
2019-02-18T19:58:58.925Z,39.73
2019-02-18T20:01:29.962Z,39.53
2019-02-18T20:03:59.317Z,36.27
2019-02-18T20:06:28.717Z,47.63
2019-02-18T20:08:58.324Z,42.40
2019-02-18T20:11:31.726Z,34.97
2019-02-18T20:14:01.501Z,33.80
2019-02-18T20:16:30.909Z,37.17
2019-02-18T20:19:00.383Z,39.20
2019-02-18T20:21:29.729Z,50.83
2019-02-18T20:23:59.109Z,68.00
2019-02-18T20:26:28.472Z,83.53
2019-02-18T20:28:57.973Z,84.63
2019-02-18T20:31:27.312Z,83.90
2019-02-18T20:33:56.667Z,80.27
2019-02-18T20:36:26.052Z,72.33
2019-02-18T20:38:55.434Z,71.70
2019-02-18T20:41:24.799Z,84.07
2019-02-18T20:43:54.278Z,96.73
2019-02-18T20:46:23.603Z,89.93
2019-02-18T20:48:52.921Z,93.60
2019-02-18T20:51:23.721Z,91.97
2019-02-18T20:53:53.101Z,112.73
2019-02-18T20:56:22.451Z,123.37
2019-02-18T20:58:51.788Z,113.77
2019-02-18T21:01:21.121Z,166.63
2019-02-18T21:03:50.494Z,160.67
2019-02-18T21:06:19.933Z,153.07
2019-02-18T21:08:49.279Z,151.83
2019-02-18T21:11:19.063Z,158.47
2019-02-18T21:13:48.423Z,139.50
2019-02-18T21:16:17.784Z,140.30
2019-02-18T21:18:47.112Z,130.37
2019-02-18T21:21:16.458Z,136.53
2019-02-18T21:23:45.802Z,131.60
2019-02-18T21:26:15.495Z,154.43
2019-02-18T21:28:45.122Z,166.57
2019-02-18T21:31:15.780Z,191.03
2019-02-18T21:33:45.149Z,185.70
2019-02-18T21:36:14.511Z,209.50
2019-02-18T21:38:44.331Z,180.90
2019-02-18T21:41:16.330Z,186.33
2019-02-18T21:43:45.677Z,179.27
2019-02-18T21:46:15.472Z,177.07
2019-02-18T21:48:44.833Z,175.57
2019-02-18T21:51:14.186Z,175.40
2019-02-18T21:53:43.522Z,172.93
2019-02-18T21:56:12.868Z,175.30
2019-02-18T21:58:42.260Z,159.87
2019-02-18T22:01:11.654Z,154.33
2019-02-18T22:03:41.055Z,132.70
2019-02-18T22:06:10.394Z,136.60
2019-02-18T22:08:39.799Z,138.83
2019-02-18T22:11:09.231Z,131.17
2019-02-18T22:13:38.736Z,134.27
2019-02-18T22:16:08.123Z,120.77
2019-02-18T22:18:37.457Z,115.10
2019-02-18T22:21:06.807Z,117.77
2019-02-18T22:23:36.140Z,120.20
2019-02-18T22:26:05.669Z,130.50
2019-02-18T22:28:35.227Z,135.90
2019-02-18T22:31:04.651Z,128.27
2019-02-18T22:33:34.014Z,121.10
2019-02-18T22:36:03.895Z,108.43
2019-02-18T22:38:33.240Z,113.67
2019-02-18T22:41:02.899Z,124.97
2019-02-18T22:43:32.307Z,122.03
2019-02-18T22:46:01.664Z,115.30
2019-02-18T22:48:31.121Z,119.57
2019-02-18T22:51:00.464Z,120.00
2019-02-18T22:53:29.836Z,112.10
2019-02-18T22:55:59.559Z,112.63
2019-02-18T22:58:28.942Z,101.53
2019-02-18T23:01:00.557Z,104.13
2019-02-18T23:03:29.954Z,94.10
2019-02-18T23:05:59.324Z,98.90
2019-02-18T23:08:28.779Z,86.43
2019-02-18T23:10:58.520Z,96.07
2019-02-18T23:13:27.943Z,87.40
2019-02-18T23:15:57.305Z,83.33
2019-02-18T23:18:26.731Z,72.83
2019-02-18T23:20:56.094Z,80.90
2019-02-18T23:23:25.500Z,85.80
2019-02-18T23:25:54.872Z,77.20
2019-02-18T23:28:24.182Z,79.80
2019-02-18T23:30:53.510Z,88.73
2019-02-18T23:33:22.842Z,92.17
2019-02-18T23:35:52.148Z,102.57
2019-02-18T23:38:21.502Z,95.83
2019-02-18T23:40:50.852Z,112.23
2019-02-18T23:43:20.197Z,108.40
2019-02-18T23:45:49.543Z,106.80
2019-02-18T23:48:18.944Z,99.37
2019-02-18T23:50:48.324Z,93.73
2019-02-18T23:53:17.690Z,108.50
2019-02-18T23:55:47.139Z,101.77
2019-02-18T23:58:16.485Z,215.23
